sensor_id;sensor_type;location;lat;lon;timestamp;pressure;altitude;pressure_sealevel;temperature;humidity
29383;BME280;16365;51.598;7.668;2023-03-18T00:00:23;100202.84;;;19.35;35.11
29383;BME280;16365;51.598;7.668;2023-03-18T00:02:49;100195.63;;;19.34;34.96
29383;BME280;16365;51.598;7.668;2023-03-18T00:05:15;100193.19;;;19.33;34.99
29383;BME280;16365;51.598;7.668;2023-03-18T00:07:42;100193.59;;;19.31;35.12
29383;BME280;16365;51.598;7.668;2023-03-18T00:10:09;100196.84;;;19.30;35.09
29383;BME280;16365;51.598;7.668;2023-03-18T00:12:36;100199.63;;;19.30;35.30
29383;BME280;16365;51.598;7.668;2023-03-18T00:15:07;100192.38;;;19.29;35.41
29383;BME280;16365;51.598;7.668;2023-03-18T00:17:34;100190.78;;;19.27;35.45
29383;BME280;16365;51.598;7.668;2023-03-18T00:20:03;100198.41;;;19.27;35.47
29383;BME280;16365;51.598;7.668;2023-03-18T00:22:34;100188.78;;;19.24;35.29
29383;BME280;16365;51.598;7.668;2023-03-18T00:25:02;100189.97;;;19.23;35.30
29383;BME280;16365;51.598;7.668;2023-03-18T00:27:28;100191.19;;;19.22;35.16
29383;BME280;16365;51.598;7.668;2023-03-18T00:29:55;100181.56;;;19.20;35.37
29383;BME280;16365;51.598;7.668;2023-03-18T00:32:24;100183.94;;;19.18;35.34
29383;BME280;16365;51.598;7.668;2023-03-18T00:34:51;100187.97;;;19.17;35.38
29383;BME280;16365;51.598;7.668;2023-03-18T00:37:18;100187.16;;;19.16;35.44
29383;BME280;16365;51.598;7.668;2023-03-18T00:39:58;100187.56;;;19.15;35.66
29383;BME280;16365;51.598;7.668;2023-03-18T00:42:30;100193.19;;;19.15;35.97
29383;BME280;16365;51.598;7.668;2023-03-18T00:45:02;100194.38;;;19.14;35.98
29383;BME280;16365;51.598;7.668;2023-03-18T00:47:29;100194.38;;;19.14;35.87
29383;BME280;16365;51.598;7.668;2023-03-18T00:49:55;100192.38;;;19.14;35.60
29383;BME280;16365;51.598;7.668;2023-03-18T00:52:22;100195.19;;;19.14;35.43
29383;BME280;16365;51.598;7.668;2023-03-18T00:54:48;100198.00;;;19.14;36.00
29383;BME280;16365;51.598;7.668;2023-03-18T00:57:15;100203.59;;;19.14;35.89
29383;BME280;16365;51.598;7.668;2023-03-18T00:59:42;100202.81;;;19.14;36.11
29383;BME280;16365;51.598;7.668;2023-03-18T01:02:09;100205.63;;;19.14;36.05
29383;BME280;16365;51.598;7.668;2023-03-18T01:04:35;100206.41;;;19.14;36.12
29383;BME280;16365;51.598;7.668;2023-03-18T01:07:02;100196.41;;;19.17;36.03
29383;BME280;16365;51.598;7.668;2023-03-18T01:09:28;100202.03;;;19.17;35.89
29383;BME280;16365;51.598;7.668;2023-03-18T01:11:54;100202.03;;;19.17;36.16
29383;BME280;16365;51.598;7.668;2023-03-18T01:14:21;100194.81;;;19.16;35.99
29383;BME280;16365;51.598;7.668;2023-03-18T01:16:47;100199.19;;;19.13;35.95
29383;BME280;16365;51.598;7.668;2023-03-18T01:19:14;100203.22;;;19.12;36.12
29383;BME280;16365;51.598;7.668;2023-03-18T01:21:41;100200.81;;;19.11;36.15
29383;BME280;16365;51.598;7.668;2023-03-18T01:24:07;100200.00;;;19.10;36.30
29383;BME280;16365;51.598;7.668;2023-03-18T01:26:35;100187.56;;;19.11;36.06
29383;BME280;16365;51.598;7.668;2023-03-18T01:29:01;100181.94;;;19.11;36.25
29383;BME280;16365;51.598;7.668;2023-03-18T01:31:28;100187.56;;;19.11;36.09
29383;BME280;16365;51.598;7.668;2023-03-18T01:33:55;100189.16;;;19.12;36.29
29383;BME280;16365;51.598;7.668;2023-03-18T01:36:21;100195.59;;;19.13;36.30
29383;BME280;16365;51.598;7.668;2023-03-18T01:38:48;100183.53;;;19.12;36.39
29383;BME280;16365;51.598;7.668;2023-03-18T01:41:14;100196.00;;;19.11;36.18
29383;BME280;16365;51.598;7.668;2023-03-18T01:43:42;100207.25;;;19.11;36.41
29383;BME280;16365;51.598;7.668;2023-03-18T01:46:27;100196.38;;;19.10;36.14
29383;BME280;16365;51.598;7.668;2023-03-18T01:48:55;100201.19;;;19.09;36.27
29383;BME280;16365;51.598;7.668;2023-03-18T01:51:22;100211.25;;;19.07;36.25
29383;BME280;16365;51.598;7.668;2023-03-18T01:53:50;100211.66;;;19.05;36.03
29383;BME280;16365;51.598;7.668;2023-03-18T01:56:17;100214.03;;;19.03;36.09
29383;BME280;16365;51.598;7.668;2023-03-18T01:58:44;100206.00;;;19.02;36.09
29383;BME280;16365;51.598;7.668;2023-03-18T02:01:13;100202.78;;;18.99;35.94
29383;BME280;16365;51.598;7.668;2023-03-18T02:03:43;100204.41;;;18.97;36.15
29383;BME280;16365;51.598;7.668;2023-03-18T02:06:09;100207.59;;;18.95;35.99
29383;BME280;16365;51.598;7.668;2023-03-18T02:08:37;100212.41;;;18.95;36.37
29383;BME280;16365;51.598;7.668;2023-03-18T02:11:05;100210.78;;;18.94;36.43
29383;BME280;16365;51.598;7.668;2023-03-18T02:13:33;100199.97;;;18.92;36.66
29383;BME280;16365;51.598;7.668;2023-03-18T02:16:01;100203.97;;;18.91;36.70
29383;BME280;16365;51.598;7.668;2023-03-18T02:18:32;100199.97;;;18.92;36.50
29383;BME280;16365;51.598;7.668;2023-03-18T02:21:16;100201.16;;;18.91;36.83
29383;BME280;16365;51.598;7.668;2023-03-18T02:26:34;100209.97;;;18.90;36.83
29383;BME280;16365;51.598;7.668;2023-03-18T02:29:02;100212.00;;;18.89;37.11
29383;BME280;16365;51.598;7.668;2023-03-18T02:31:31;100199.16;;;18.88;36.68
29383;BME280;16365;51.598;7.668;2023-03-18T02:33:58;100205.56;;;18.89;36.99
29383;BME280;16365;51.598;7.668;2023-03-18T02:36:26;100207.56;;;18.88;36.99
29383;BME280;16365;51.598;7.668;2023-03-18T02:38:55;100212.00;;;18.89;37.04
29383;BME280;16365;51.598;7.668;2023-03-18T02:41:23;100208.81;;;18.91;36.83
29383;BME280;16365;51.598;7.668;2023-03-18T02:43:50;100210.41;;;18.92;37.21
29383;BME280;16365;51.598;7.668;2023-03-18T02:46:35;100205.59;;;18.92;36.87
29383;BME280;16365;51.598;7.668;2023-03-18T02:49:06;100207.59;;;18.92;36.94
29383;BME280;16365;51.598;7.668;2023-03-18T02:51:33;100213.59;;;18.94;36.79
29383;BME280;16365;51.598;7.668;2023-03-18T02:54:02;100201.56;;;18.93;37.07
29383;BME280;16365;51.598;7.668;2023-03-18T02:56:29;100202.00;;;18.95;36.82
29383;BME280;16365;51.598;7.668;2023-03-18T02:58:55;100194.38;;;18.96;37.07
29383;BME280;16365;51.598;7.668;2023-03-18T03:01:23;100191.56;;;18.96;37.09
29383;BME280;16365;51.598;7.668;2023-03-18T03:03:50;100186.75;;;18.96;37.05
29383;BME280;16365;51.598;7.668;2023-03-18T03:06:16;100189.53;;;18.96;36.92
29383;BME280;16365;51.598;7.668;2023-03-18T03:08:43;100199.19;;;18.95;37.04
29383;BME280;16365;51.598;7.668;2023-03-18T03:11:09;100200.78;;;18.96;37.34
29383;BME280;16365;51.598;7.668;2023-03-18T03:13:37;100198.78;;;18.97;37.32
29383;BME280;16365;51.598;7.668;2023-03-18T03:16:04;100197.97;;;18.96;37.49
29383;BME280;16365;51.598;7.668;2023-03-18T03:18:30;100196.38;;;18.95;37.25
29383;BME280;16365;51.598;7.668;2023-03-18T03:20:57;100202.78;;;18.96;37.39
29383;BME280;16365;51.598;7.668;2023-03-18T03:23:23;100195.94;;;18.93;37.40
29383;BME280;16365;51.598;7.668;2023-03-18T03:25:50;100205.59;;;18.92;37.41
29383;BME280;16365;51.598;7.668;2023-03-18T03:28:16;100205.59;;;18.92;37.42
29383;BME280;16365;51.598;7.668;2023-03-18T03:30:43;100203.19;;;18.91;37.54
29383;BME280;16365;51.598;7.668;2023-03-18T03:33:09;100204.75;;;18.88;37.51
29383;BME280;16365;51.598;7.668;2023-03-18T03:35:36;100210.38;;;18.85;37.37
29383;BME280;16365;51.598;7.668;2023-03-18T03:38:03;100216.38;;;18.83;37.30
29383;BME280;16365;51.598;7.668;2023-03-18T03:40:30;100221.97;;;18.80;37.38
29383;BME280;16365;51.598;7.668;2023-03-18T03:42:57;100222.78;;;18.77;37.66
29383;BME280;16365;51.598;7.668;2023-03-18T03:45:24;100221.56;;;18.74;37.67
29383;BME280;16365;51.598;7.668;2023-03-18T03:47:50;100224.38;;;18.74;37.58
29383;BME280;16365;51.598;7.668;2023-03-18T03:50:17;100222.78;;;18.73;37.55
29383;BME280;16365;51.598;7.668;2023-03-18T03:52:44;100228.78;;;18.71;37.68
29383;BME280;16365;51.598;7.668;2023-03-18T03:55:12;100224.78;;;18.72;37.83
29383;BME280;16365;51.598;7.668;2023-03-18T03:57:39;100225.16;;;18.71;37.78
29383;BME280;16365;51.598;7.668;2023-03-18T04:00:07;100234.41;;;18.71;37.77
29383;BME280;16365;51.598;7.668;2023-03-18T04:02:35;100234.00;;;18.69;37.39
29383;BME280;16365;51.598;7.668;2023-03-18T04:05:02;100239.97;;;18.68;37.59
29383;BME280;16365;51.598;7.668;2023-03-18T04:07:29;100240.38;;;18.66;37.82
29383;BME280;16365;51.598;7.668;2023-03-18T04:09:55;100244.75;;;18.64;37.52
29383;BME280;16365;51.598;7.668;2023-03-18T04:12:22;100245.16;;;18.62;37.49
29383;BME280;16365;51.598;7.668;2023-03-18T04:14:48;100247.56;;;18.60;37.80
29383;BME280;16365;51.598;7.668;2023-03-18T04:17:17;100251.97;;;18.58;37.77
29383;BME280;16365;51.598;7.668;2023-03-18T04:19:43;100239.09;;;18.53;37.57
29383;BME280;16365;51.598;7.668;2023-03-18T04:22:09;100247.91;;;18.52;37.99
29383;BME280;16365;51.598;7.668;2023-03-18T04:24:35;100245.50;;;18.50;37.82
29383;BME280;16365;51.598;7.668;2023-03-18T04:27:02;100249.91;;;18.47;37.61
29383;BME280;16365;51.598;7.668;2023-03-18T04:29:29;100250.28;;;18.46;38.05
29383;BME280;16365;51.598;7.668;2023-03-18T04:31:55;100248.28;;;18.43;37.81
29383;BME280;16365;51.598;7.668;2023-03-18T04:34:22;100260.28;;;18.40;37.89
29383;BME280;16365;51.598;7.668;2023-03-18T04:36:49;100265.06;;;18.36;37.84
29383;BME280;16365;51.598;7.668;2023-03-18T04:39:15;100257.81;;;18.31;37.85
29383;BME280;16365;51.598;7.668;2023-03-18T04:41:41;100260.22;;;18.29;37.60
29383;BME280;16365;51.598;7.668;2023-03-18T04:44:08;100261.41;;;18.24;37.39
29383;BME280;16365;51.598;7.668;2023-03-18T04:46:34;100269.38;;;18.22;37.84
29383;BME280;16365;51.598;7.668;2023-03-18T04:49:01;100278.59;;;18.19;38.17
29383;BME280;16365;51.598;7.668;2023-03-18T04:51:27;100275.75;;;18.16;37.95
29383;BME280;16365;51.598;7.668;2023-03-18T04:53:54;100275.72;;;18.12;38.27
29383;BME280;16365;51.598;7.668;2023-03-18T04:56:20;100271.72;;;18.10;38.25
29383;BME280;16365;51.598;7.668;2023-03-18T04:58:47;100281.34;;;18.09;38.39
29383;BME280;16365;51.598;7.668;2023-03-18T05:01:13;100277.31;;;18.06;38.31
29383;BME280;16365;51.598;7.668;2023-03-18T05:03:40;100277.69;;;18.05;38.24
29383;BME280;16365;51.598;7.668;2023-03-18T05:06:07;100278.06;;;18.03;38.55
29383;BME280;16365;51.598;7.668;2023-03-18T05:08:34;100286.88;;;18.02;38.40
29383;BME280;16365;51.598;7.668;2023-03-18T05:11:00;100288.09;;;18.01;38.07
29383;BME280;16365;51.598;7.668;2023-03-18T05:13:27;100274.81;;;17.97;38.25
29383;BME280;16365;51.598;7.668;2023-03-18T05:15:53;100282.03;;;17.95;38.34
29383;BME280;16365;51.598;7.668;2023-03-18T05:18:20;100292.81;;;17.93;38.45
29383;BME280;16365;51.598;7.668;2023-03-18T05:20:46;100289.59;;;17.91;38.24
29383;BME280;16365;51.598;7.668;2023-03-18T05:23:13;100289.19;;;17.89;38.60
29383;BME280;16365;51.598;7.668;2023-03-18T05:25:39;100289.56;;;17.87;38.61
29383;BME280;16365;51.598;7.668;2023-03-18T05:28:06;100297.59;;;17.85;38.43
29383;BME280;16365;51.598;7.668;2023-03-18T05:30:36;100298.38;;;17.86;38.48
29383;BME280;16365;51.598;7.668;2023-03-18T05:33:04;100293.16;;;17.84;38.18
29383;BME280;16365;51.598;7.668;2023-03-18T05:35:31;100289.94;;;17.82;38.56
29383;BME280;16365;51.598;7.668;2023-03-18T05:37:58;100295.53;;;17.82;38.74
29383;BME280;16365;51.598;7.668;2023-03-18T05:40:24;100294.75;;;17.82;38.83
29383;BME280;16365;51.598;7.668;2023-03-18T05:42:50;100299.16;;;17.83;38.91
29383;BME280;16365;51.598;7.668;2023-03-18T05:45:21;100296.34;;;17.83;38.52
29383;BME280;16365;51.598;7.668;2023-03-18T05:47:48;100289.94;;;17.82;39.02
29383;BME280;16365;51.598;7.668;2023-03-18T05:50:17;100289.94;;;17.82;38.90
29383;BME280;16365;51.598;7.668;2023-03-18T05:52:43;100294.34;;;17.83;38.93
29383;BME280;16365;51.598;7.668;2023-03-18T05:55:11;100296.78;;;17.85;39.13
29383;BME280;16365;51.598;7.668;2023-03-18T05:57:38;100297.59;;;17.85;38.61
29383;BME280;16365;51.598;7.668;2023-03-18T06:00:05;100301.19;;;17.86;39.02
29383;BME280;16365;51.598;7.668;2023-03-18T06:02:32;100304.41;;;17.88;38.51
29383;BME280;16365;51.598;7.668;2023-03-18T06:04:58;100313.63;;;17.88;38.80
29383;BME280;16365;51.598;7.668;2023-03-18T06:07:25;100311.59;;;17.89;38.94
29383;BME280;16365;51.598;7.668;2023-03-18T06:09:52;100312.44;;;17.89;39.03
29383;BME280;16365;51.598;7.668;2023-03-18T06:12:18;100314.06;;;17.90;38.94
29383;BME280;16365;51.598;7.668;2023-03-18T06:14:48;100317.66;;;17.91;38.75
29383;BME280;16365;51.598;7.668;2023-03-18T06:17:14;100319.25;;;17.92;39.22
29383;BME280;16365;51.598;7.668;2023-03-18T06:19:41;100320.50;;;17.94;38.98
29383;BME280;16365;51.598;7.668;2023-03-18T06:22:07;100321.72;;;17.97;38.56
29383;BME280;16365;51.598;7.668;2023-03-18T06:24:35;100326.13;;;17.98;38.99
29383;BME280;16365;51.598;7.668;2023-03-18T06:27:01;100332.53;;;17.98;39.09
29383;BME280;16365;51.598;7.668;2023-03-18T06:29:27;100334.56;;;18.02;38.83
29383;BME280;16365;51.598;7.668;2023-03-18T06:31:54;100332.56;;;18.02;38.80
29383;BME280;16365;51.598;7.668;2023-03-18T06:34:21;100331.38;;;18.03;38.59
29383;BME280;16365;51.598;7.668;2023-03-18T06:36:47;100334.59;;;18.05;38.83
29383;BME280;16365;51.598;7.668;2023-03-18T06:39:14;100329.81;;;18.06;39.04
29383;BME280;16365;51.598;7.668;2023-03-18T06:41:41;100337.44;;;18.09;38.73
29383;BME280;16365;51.598;7.668;2023-03-18T06:44:07;100346.28;;;18.11;38.42
29383;BME280;16365;51.598;7.668;2023-03-18T06:46:33;100343.88;;;18.13;38.92
29383;BME280;16365;51.598;7.668;2023-03-18T06:49:00;100344.31;;;18.15;38.57
29383;BME280;16365;51.598;7.668;2023-03-18T06:51:27;100345.91;;;18.16;38.66
29383;BME280;16365;51.598;7.668;2023-03-18T06:53:53;100353.56;;;18.19;38.93
29383;BME280;16365;51.598;7.668;2023-03-18T06:56:20;100353.97;;;18.21;38.72
29383;BME280;16365;51.598;7.668;2023-03-18T06:58:47;100346.78;;;18.23;39.23
29383;BME280;16365;51.598;7.668;2023-03-18T07:01:13;100355.22;;;18.27;39.55
29383;BME280;16365;51.598;7.668;2023-03-18T07:03:40;100356.44;;;18.30;39.24
29383;BME280;16365;51.598;7.668;2023-03-18T07:06:07;100351.66;;;18.34;39.15
29383;BME280;16365;51.598;7.668;2023-03-18T07:08:35;100358.13;;;18.38;39.27
29383;BME280;16365;51.598;7.668;2023-03-18T07:11:02;100371.00;;;18.42;39.38
29383;BME280;16365;51.598;7.668;2023-03-18T07:13:29;100367.38;;;18.45;39.32
29383;BME280;16365;51.598;7.668;2023-03-18T07:15:55;100369.41;;;18.48;39.35
29383;BME280;16365;51.598;7.668;2023-03-18T07:18:22;100374.22;;;18.52;39.01
29383;BME280;16365;51.598;7.668;2023-03-18T07:20:48;100380.69;;;18.56;39.38
29383;BME280;16365;51.598;7.668;2023-03-18T07:23:15;100383.53;;;18.59;38.93
29383;BME280;16365;51.598;7.668;2023-03-18T07:25:42;100383.94;;;18.61;39.25
29383;BME280;16365;51.598;7.668;2023-03-18T07:28:09;100379.56;;;18.64;39.31
29383;BME280;16365;51.598;7.668;2023-03-18T07:30:36;100385.19;;;18.67;39.36
29383;BME280;16365;51.598;7.668;2023-03-18T07:33:03;100379.22;;;18.69;39.22
29383;BME280;16365;51.598;7.668;2023-03-18T07:35:30;100383.63;;;18.70;39.29
29383;BME280;16365;51.598;7.668;2023-03-18T07:37:57;100389.22;;;18.66;39.32
29383;BME280;16365;51.598;7.668;2023-03-18T07:40:23;100390.81;;;18.67;39.76
29383;BME280;16365;51.598;7.668;2023-03-18T07:42:50;100392.44;;;18.68;39.62
29383;BME280;16365;51.598;7.668;2023-03-18T07:45:16;100388.44;;;18.69;39.49
29383;BME280;16365;51.598;7.668;2023-03-18T07:47:43;100400.09;;;18.71;39.18
29383;BME280;16365;51.598;7.668;2023-03-18T07:50:12;100392.84;;;18.70;39.52
29383;BME280;16365;51.598;7.668;2023-03-18T07:52:39;100398.91;;;18.72;39.60
29383;BME280;16365;51.598;7.668;2023-03-18T07:55:05;100400.09;;;18.75;39.47
29383;BME280;16365;51.598;7.668;2023-03-18T07:57:34;100400.91;;;18.75;39.76
29383;BME280;16365;51.598;7.668;2023-03-18T08:00:00;100406.16;;;18.77;40.02
29383;BME280;16365;51.598;7.668;2023-03-18T08:02:27;100406.16;;;18.81;39.83
29383;BME280;16365;51.598;7.668;2023-03-18T08:04:53;100406.19;;;18.84;39.59
29383;BME280;16365;51.598;7.668;2023-03-18T08:07:20;100411.44;;;18.86;39.63
29383;BME280;16365;51.598;7.668;2023-03-18T08:09:48;100414.25;;;18.89;39.75
29383;BME280;16365;51.598;7.668;2023-03-18T08:12:16;100414.66;;;18.91;39.64
29383;BME280;16365;51.598;7.668;2023-03-18T08:14:44;100417.47;;;18.95;39.76
29383;BME280;16365;51.598;7.668;2023-03-18T08:17:10;100411.50;;;19.00;39.59
29383;BME280;16365;51.598;7.668;2023-03-18T08:19:37;100420.38;;;19.06;39.67
29383;BME280;16365;51.598;7.668;2023-03-18T08:22:03;100419.19;;;19.10;40.19
29383;BME280;16365;51.598;7.668;2023-03-18T08:24:30;100423.25;;;19.16;40.31
29383;BME280;16365;51.598;7.668;2023-03-18T08:26:56;100422.09;;;19.24;40.32
29383;BME280;16365;51.598;7.668;2023-03-18T08:29:22;100425.31;;;19.34;40.42
29383;BME280;16365;51.598;7.668;2023-03-18T08:31:49;100426.56;;;19.43;40.31
29383;BME280;16365;51.598;7.668;2023-03-18T08:34:16;100418.56;;;19.52;40.22
29383;BME280;16365;51.598;7.668;2023-03-18T08:36:42;100435.53;;;19.63;40.15
29383;BME280;16365;51.598;7.668;2023-03-18T08:39:08;100430.31;;;19.72;40.19
29383;BME280;16365;51.598;7.668;2023-03-18T08:41:36;100433.56;;;19.82;40.27
29383;BME280;16365;51.598;7.668;2023-03-18T08:44:02;100438.00;;;19.90;40.32
29383;BME280;16365;51.598;7.668;2023-03-18T08:46:31;100453.72;;;19.98;39.71
29383;BME280;16365;51.598;7.668;2023-03-18T08:48:58;100454.50;;;20.06;39.95
29383;BME280;16365;51.598;7.668;2023-03-18T08:51:25;100456.56;;;20.12;39.90
29383;BME280;16365;51.598;7.668;2023-03-18T08:53:51;100454.16;;;20.18;39.78
29383;BME280;16365;51.598;7.668;2023-03-18T08:56:18;100453.75;;;20.23;39.71
29383;BME280;16365;51.598;7.668;2023-03-18T08:58:44;100452.97;;;20.26;39.39
29383;BME280;16365;51.598;7.668;2023-03-18T09:01:11;100456.97;;;20.28;39.79
29383;BME280;16365;51.598;7.668;2023-03-18T09:03:37;100460.19;;;20.31;39.62
29383;BME280;16365;51.598;7.668;2023-03-18T09:06:04;100458.59;;;20.33;39.57
29383;BME280;16365;51.598;7.668;2023-03-18T09:08:30;100461.78;;;20.35;39.46
29383;BME280;16365;51.598;7.668;2023-03-18T09:10:58;100466.25;;;20.36;39.38
29383;BME280;16365;51.598;7.668;2023-03-18T09:13:25;100457.38;;;20.38;39.50
29383;BME280;16365;51.598;7.668;2023-03-18T09:15:51;100457.78;;;20.43;39.66
29383;BME280;16365;51.598;7.668;2023-03-18T09:18:18;100464.25;;;20.47;39.63
29383;BME280;16365;51.598;7.668;2023-03-18T09:20:44;100463.84;;;20.52;39.64
29383;BME280;16365;51.598;7.668;2023-03-18T09:23:12;100464.25;;;20.58;39.37
29383;BME280;16365;51.598;7.668;2023-03-18T09:25:39;100464.66;;;20.64;39.61
29383;BME280;16365;51.598;7.668;2023-03-18T09:28:08;100473.50;;;20.69;39.75
29383;BME280;16365;51.598;7.668;2023-03-18T09:30:35;100468.66;;;20.73;39.42
29383;BME280;16365;51.598;7.668;2023-03-18T09:33:03;100460.22;;;20.77;39.39
29383;BME280;16365;51.598;7.668;2023-03-18T09:35:32;100455.81;;;20.79;39.24
29383;BME280;16365;51.598;7.668;2023-03-18T09:37:59;100472.69;;;20.83;39.47
29383;BME280;16365;51.598;7.668;2023-03-18T11:02:00;100498.53;;;16.41;47.95
29383;BME280;16365;51.598;7.668;2023-03-18T11:04:28;100489.94;;;17.30;46.66
29383;BME280;16365;51.598;7.668;2023-03-18T11:07:00;100496.00;;;17.95;46.33
29383;BME280;16365;51.598;7.668;2023-03-18T11:09:34;100488.53;;;18.51;44.90
29383;BME280;16365;51.598;7.668;2023-03-18T11:12:23;100482.09;;;18.95;44.09
29383;BME280;16365;51.598;7.668;2023-03-18T11:14:50;100479.97;;;19.40;43.49
29383;BME280;16365;51.598;7.668;2023-03-18T11:17:20;100484.16;;;19.71;42.89
29383;BME280;16365;51.598;7.668;2023-03-18T11:19:58;100486.69;;;19.97;42.81
29383;BME280;16365;51.598;7.668;2023-03-18T11:22:26;100481.91;;;20.23;41.92
29383;BME280;16365;51.598;7.668;2023-03-18T11:25:14;100483.94;;;20.44;41.38
29383;BME280;16365;51.598;7.668;2023-03-18T11:27:47;100483.19;;;20.65;41.04
29383;BME280;16365;51.598;7.668;2023-03-18T11:30:16;100477.53;;;20.83;40.80
29383;BME280;16365;51.598;7.668;2023-03-18T11:35:49;100482.31;;;21.11;40.19
29383;BME280;16365;51.598;7.668;2023-03-18T11:38:26;100480.69;;;21.24;39.66
29383;BME280;16365;51.598;7.668;2023-03-18T11:41:05;100482.72;;;21.38;39.09
29383;BME280;16365;51.598;7.668;2023-03-18T11:43:35;100480.25;;;21.47;39.31
29383;BME280;16365;51.598;7.668;2023-03-18T11:46:04;100479.41;;;21.53;38.92
29383;BME280;16365;51.598;7.668;2023-03-18T11:48:37;100477.78;;;21.56;38.77
29383;BME280;16365;51.598;7.668;2023-03-18T11:51:27;100473.34;;;21.59;38.49
29383;BME280;16365;51.598;7.668;2023-03-18T11:56:34;100457.22;;;21.66;38.36
29383;BME280;16365;51.598;7.668;2023-03-18T12:02:01;100456.72;;;21.78;38.55
29383;BME280;16365;51.598;7.668;2023-03-18T12:07:58;100447.03;;;21.83;38.33
29383;BME280;16365;51.598;7.668;2023-03-18T12:19:48;100448.13;;;22.03;37.77
29383;BME280;16365;51.598;7.668;2023-03-18T12:27:57;100448.50;;;22.13;37.91
29383;BME280;16365;51.598;7.668;2023-03-18T12:38:41;100446.72;;;22.33;37.34
29383;BME280;16365;51.598;7.668;2023-03-18T12:41:32;100454.00;;;22.34;36.80
29383;BME280;16365;51.598;7.668;2023-03-18T12:44:18;100452.78;;;22.39;37.02
29383;BME280;16365;51.598;7.668;2023-03-18T12:46:54;100451.91;;;22.42;36.61
29383;BME280;16365;51.598;7.668;2023-03-18T12:49:40;100451.50;;;22.43;36.52
29383;BME280;16365;51.598;7.668;2023-03-18T12:52:19;100444.19;;;22.49;36.51
29383;BME280;16365;51.598;7.668;2023-03-18T12:57:48;100431.22;;;22.59;36.10
29383;BME280;16365;51.598;7.668;2023-03-18T13:03:27;100434.72;;;22.70;36.11
29383;BME280;16365;51.598;7.668;2023-03-18T13:06:02;100437.91;;;22.76;36.34
29383;BME280;16365;51.598;7.668;2023-03-18T13:11:40;100421.28;;;22.81;36.30
29383;BME280;16365;51.598;7.668;2023-03-18T13:16:42;100423.22;;;22.92;36.18
29383;BME280;16365;51.598;7.668;2023-03-18T13:19:09;100422.84;;;22.93;35.98
29383;BME280;16365;51.598;7.668;2023-03-18T13:21:45;100428.06;;;22.95;35.67
29383;BME280;16365;51.598;7.668;2023-03-18T13:24:39;100423.59;;;22.97;35.49
29383;BME280;16365;51.598;7.668;2023-03-18T13:27:20;100420.69;;;23.04;35.88
29383;BME280;16365;51.598;7.668;2023-03-18T13:30:01;100414.59;;;23.06;35.47
29383;BME280;16365;51.598;7.668;2023-03-18T13:38:02;100400.00;;;23.11;35.45
29383;BME280;16365;51.598;7.668;2023-03-18T13:40:49;100405.22;;;23.16;35.27
29383;BME280;16365;51.598;7.668;2023-03-18T13:43:21;100395.44;;;23.21;34.57
29383;BME280;16365;51.598;7.668;2023-03-18T13:45:51;100405.13;;;23.23;34.62
29383;BME280;16365;51.598;7.668;2023-03-18T13:48:30;100405.91;;;23.24;34.29
29383;BME280;16365;51.598;7.668;2023-03-18T13:51:16;100409.06;;;23.29;34.33
29383;BME280;16365;51.598;7.668;2023-03-18T13:53:45;100410.25;;;23.36;34.32
29383;BME280;16365;51.598;7.668;2023-03-18T13:58:51;100398.03;;;23.42;34.16
29383;BME280;16365;51.598;7.668;2023-03-18T14:09:21;100392.69;;;23.48;33.90
29383;BME280;16365;51.598;7.668;2023-03-18T14:11:51;100380.09;;;23.52;33.77
29383;BME280;16365;51.598;7.668;2023-03-18T14:17:28;100375.63;;;23.55;33.62
29383;BME280;16365;51.598;7.668;2023-03-18T14:20:35;100375.19;;;23.56;33.56
29383;BME280;16365;51.598;7.668;2023-03-18T14:23:35;100369.91;;;23.58;33.13
29383;BME280;16365;51.598;7.668;2023-03-18T14:28:47;100364.19;;;23.62;33.39
29383;BME280;16365;51.598;7.668;2023-03-18T14:39:35;100364.59;;;23.64;32.65
29383;BME280;16365;51.598;7.668;2023-03-18T14:42:22;100360.13;;;23.63;32.47
29383;BME280;16365;51.598;7.668;2023-03-18T14:44:53;100365.78;;;23.67;32.38
29383;BME280;16365;51.598;7.668;2023-03-18T14:47:25;100354.09;;;23.65;32.58
29383;BME280;16365;51.598;7.668;2023-03-18T14:53:09;100344.78;;;23.64;32.88
29383;BME280;16365;51.598;7.668;2023-03-18T14:55:37;100345.97;;;23.67;33.27
29383;BME280;16365;51.598;7.668;2023-03-18T14:58:04;100346.41;;;23.65;32.82
29383;BME280;16365;51.598;7.668;2023-03-18T15:00:35;100345.19;;;23.63;32.27
29383;BME280;16365;51.598;7.668;2023-03-18T15:03:07;100346.84;;;23.60;32.49
29383;BME280;16365;51.598;7.668;2023-03-18T15:05:39;100350.88;;;23.59;32.54
29383;BME280;16365;51.598;7.668;2023-03-18T15:08:19;100351.34;;;23.54;32.14
29383;BME280;16365;51.598;7.668;2023-03-18T15:10:48;100349.75;;;23.53;32.32
29383;BME280;16365;51.598;7.668;2023-03-18T15:13:18;100349.81;;;23.49;32.23
29383;BME280;16365;51.598;7.668;2023-03-18T15:15:46;100342.53;;;23.48;32.51
29383;BME280;16365;51.598;7.668;2023-03-18T15:18:19;100339.75;;;23.45;32.55
29383;BME280;16365;51.598;7.668;2023-03-18T15:21:11;100340.59;;;23.45;32.43
29383;BME280;16365;51.598;7.668;2023-03-18T15:23:38;100331.28;;;23.45;32.51
29383;BME280;16365;51.598;7.668;2023-03-18T15:26:06;100332.50;;;23.44;32.60
29383;BME280;16365;51.598;7.668;2023-03-18T15:28:38;100336.56;;;23.43;32.64
29383;BME280;16365;51.598;7.668;2023-03-18T15:31:04;100336.59;;;23.39;32.43
29383;BME280;16365;51.598;7.668;2023-03-18T15:33:36;100335.06;;;23.34;32.43
29383;BME280;16365;51.598;7.668;2023-03-18T15:36:13;100337.94;;;23.31;32.62
29383;BME280;16365;51.598;7.668;2023-03-18T15:38:49;100335.97;;;23.28;32.55
29383;BME280;16365;51.598;7.668;2023-03-18T15:41:17;100340.38;;;23.29;32.50
29383;BME280;16365;51.598;7.668;2023-03-18T15:43:49;100348.53;;;23.23;32.74